New York — WZH4694 — position and weather

sailwx.info

Track history (hours):
 
Tides and Currents Weather Stations Pressure Air Temp Water Temp Dewpoint Dewpoint Depression Visibility Wind Speed Wind Dir Waves Ship Positions

New York

Owner: UNITED SANDY HOOK PILOTS ASSOC, STATEN ISLAND, NY. More information available from US FCC via Universal Licensing System and Coast Guard Vessel Documentation Center.

Last reported at 2018-Feb-22 22:58 UTC. Time now 2018-Feb-22 23:04 UTC.
Position N 40°27' W 073°48'.

Length 55 m; draft 5 m.

Type: . MMSI: 367008090.

Date/timePositionNaut miles runAvg speedWind from/ knotsBaromVisibWave heightAir tempDewpointWater temp
2018-Feb-22 22:58N 40°27' W 073°48'2 3.5
2018-Feb-22 22:29N 40°27' W 073°50'2 3.8
2018-Feb-22 21:58N 40°25' W 073°49'0 1.0
2018-Feb-22 21:30N 40°26' W 073°49'1 1.1
2018-Feb-22 21:00N 40°26' W 073°49'1 1.0
2018-Feb-22 20:25N 40°27' W 073°48'1 1.4
2018-Feb-22 19:54N 40°27' W 073°47'2 5.2
2018-Feb-22 19:30N 40°27' W 073°50'4 7.5
2018-Feb-22 19:00N 40°27' W 073°55'2 3.4
2018-Feb-22 18:30N 40°28' W 073°53'1 1.0
2018-Feb-22 17:59N 40°28' W 073°52'1 2.2
2018-Feb-22 17:30N 40°27' W 073°51'1 2.8
2018-Feb-22 17:00N 40°26' W 073°50'1 1.0
2018-Feb-22 16:29N 40°26' W 073°50'1 1.1
2018-Feb-22 16:00N 40°26' W 073°49'1 1.1
2018-Feb-22 15:28N 40°26' W 073°48'1 1.5
2018-Feb-22 15:00N 40°27' W 073°48'0 0.2
2018-Feb-22 14:30N 40°26' W 073°49'2 3.8
2018-Feb-22 13:58N 40°27' W 073°51'1 1.2
2018-Feb-22 13:30N 40°27' W 073°51'1 1.2
2018-Feb-22 13:00N 40°27' W 073°50'0 0.9
2018-Feb-22 12:30N 40°28' W 073°50'0 0.8
2018-Feb-22 11:58N 40°28' W 073°49'1 2.4
2018-Feb-22 11:30N 40°27' W 073°50'0 0.3
2018-Feb-22 11:00N 40°27' W 073°50'1 1.6
2018-Feb-22 10:28N 40°26' W 073°50'0 0.9
2018-Feb-22 09:59N 40°26' W 073°49'1 1.3
2018-Feb-22 09:30N 40°27' W 073°50'1 2.2
2018-Feb-22 08:59N 40°27' W 073°48'1 1.5
2018-Feb-22 08:30N 40°27' W 073°49'1 1.6
2018-Feb-22 08:00N 40°26' W 073°49'2 3.4
2018-Feb-22 07:29N 40°27' W 073°50'0 0.2
2018-Feb-22 06:59N 40°27' W 073°50'0 0.8
2018-Feb-22 06:30N 40°27' W 073°51'1 1.2
2018-Feb-22 06:00N 40°28' W 073°51'0 0.8
2018-Feb-22 05:30N 40°27' W 073°50'1 1.0
2018-Feb-22 04:59N 40°27' W 073°50'0 0.5
2018-Feb-22 04:29N 40°27' W 073°50'0 0.7
2018-Feb-22 04:00N 40°27' W 073°50'0 0.5
2018-Feb-22 03:30N 40°27' W 073°50'0 0.3
2018-Feb-22 03:00N 40°27' W 073°50'0 0.2
2018-Feb-22 02:30N 40°27' W 073°50'0 0.2
2018-Feb-22 01:58N 40°27' W 073°50'0 0.1
2018-Feb-22 01:30N 40°27' W 073°50'0 0.1
2018-Feb-22 00:59N 40°27' W 073°50'0 1.0
2018-Feb-22 00:29N 40°27' W 073°49'0 0.6
2018-Feb-21 23:57N 40°26' W 073°50'1 2.5
2018-Feb-21 23:30N 40°26' W 073°48'2 2.8
2018-Feb-21 22:55N 40°27' W 073°50'2 3.6
2018-Feb-21 22:30N 40°28' W 073°48'1 2.5
2018-Feb-21 21:59N 40°28' W 073°46'1 1.2
2018-Feb-21 21:27N 40°28' W 073°47'1 1.2
2018-Feb-21 20:59N 40°28' W 073°48'1 1.1
2018-Feb-21 20:30N 40°27' W 073°48'1 1.2
2018-Feb-21 20:00N 40°27' W 073°49'1 1.0
2018-Feb-21 19:30N 40°27' W 073°49'1 2.1
2018-Feb-21 18:57N 40°26' W 073°48'0 0.6
2018-Feb-21 18:29N 40°26' W 073°48'3 5.1
2018-Feb-21 17:59N 40°29' W 073°49'0 1.0
2018-Feb-21 17:28N 40°28' W 073°49'0 0.9
2018-Feb-21 16:59N 40°28' W 073°49'1 1.1
2018-Feb-21 16:28N 40°27' W 073°49'1 1.4
2018-Feb-21 15:59N 40°27' W 073°49'1 1.9
2018-Feb-21 15:30N 40°26' W 073°49'0 0.6
2018-Feb-21 14:59N 40°25' W 073°49'0 0.8
2018-Feb-21 14:30N 40°26' W 073°48'3 4.9
2018-Feb-21 13:59N 40°28' W 073°50'1 1.4
2018-Feb-21 13:29N 40°28' W 073°51'1 1.9
2018-Feb-21 12:59N 40°28' W 073°50'2 4.1
2018-Feb-21 12:29N 40°26' W 073°49'0 0.5
2018-Feb-21 11:59N 40°25' W 073°49'1 0.7
2018-Feb-21 11:11N 40°26' W 073°49'1 6.5
2018-Feb-21 11:00N 40°27' W 073°48'2 4.1
2018-Feb-21 10:30N 40°29' W 073°48'0 0.9
2018-Feb-21 10:00N 40°28' W 073°49'0 1.0
2018-Feb-21 09:30N 40°28' W 073°49'0 0.9
2018-Feb-21 09:00N 40°28' W 073°49'2 2.3
2018-Feb-21 08:19N 40°27' W 073°48'0 0.3
2018-Feb-21 07:54N 40°27' W 073°47'0 0.5
2018-Feb-21 07:21N 40°27' W 073°48'1 1.1
2018-Feb-21 06:43N 40°26' W 073°48'0 1.0
2018-Feb-21 06:27N 40°26' W 073°48'2 3.6
2018-Feb-21 06:00N 40°27' W 073°49'1 1.5
2018-Feb-21 05:28N 40°27' W 073°50'1 1.1
2018-Feb-21 05:00N 40°27' W 073°50'1 1.0
2018-Feb-21 04:30N 40°26' W 073°50'1 1.6
2018-Feb-21 04:00N 40°26' W 073°51'1 2.7
2018-Feb-21 03:30N 40°28' W 073°50'1 1.9
2018-Feb-21 03:00N 40°27' W 073°50'2 3.8
2018-Feb-21 02:29N 40°29' W 073°50'0 1.0
2018-Feb-21 02:00N 40°28' W 073°49'0 0.9
2018-Feb-21 01:29N 40°28' W 073°49'1 1.4
2018-Feb-21 01:00N 40°27' W 073°50'1 2.4
2018-Feb-21 00:30N 40°26' W 073°49'0 0.8
2018-Feb-20 23:58N 40°26' W 073°49'2 3.7
2018-Feb-20 23:28N 40°28' W 073°48'1 1.1
2018-Feb-20 22:58N 40°27' W 073°48'1 1.3
2018-Feb-20 22:30N 40°27' W 073°48'0 0.2
2018-Feb-20 22:00N 40°26' W 073°48'2 3.4
2018-Feb-20 21:30N 40°27' W 073°50'0 0.3
2018-Feb-20 20:59N 40°27' W 073°50'0 0.2
2018-Feb-20 20:30N 40°27' W 073°50'1 1.9
2018-Feb-20 19:59N 40°27' W 073°49'1 1.6
2018-Feb-20 19:29N 40°27' W 073°48'2 4.6
2018-Feb-20 19:00N 40°27' W 073°51'1 1.2
2018-Feb-20 18:24N 40°27' W 073°50'0 0.7
2018-Feb-20 17:58N 40°27' W 073°50'1 1.8
2018-Feb-20 17:30N 40°27' W 073°49'0 0.2
2018-Feb-20 17:00N 40°27' W 073°49'0 0.3
2018-Feb-20 16:28N 40°27' W 073°49'0 0.9
2018-Feb-20 16:00N 40°27' W 073°48'0 0.7
2018-Feb-20 15:21N 40°27' W 073°49'1 0.5
2018-Feb-20 14:05N 40°26' W 073°49'0 0.9
2018-Feb-20 13:55N 40°26' W 073°49'0 0.4
2018-Feb-20 13:30N 40°26' W 073°49'2 2.6
2018-Feb-20 12:51N 40°27' W 073°50'1 1.5
2018-Feb-20 12:29N 40°27' W 073°50'1 1.4
2018-Feb-20 11:58N 40°27' W 073°49'0 0.8
2018-Feb-20 11:30N 40°27' W 073°49'0 0.8
2018-Feb-20 11:00N 40°27' W 073°48'0 0.3
2018-Feb-20 10:30N 40°27' W 073°48'0 0.8
2018-Feb-20 10:00N 40°26' W 073°48'0 0.2
2018-Feb-20 09:26N 40°26' W 073°48'1 1.2
2018-Feb-20 08:58N 40°27' W 073°49'0 0.9
2018-Feb-20 08:28N 40°26' W 073°48'0 0.8
2018-Feb-20 07:59N 40°26' W 073°48'0 0.9
2018-Feb-20 07:29N 40°26' W 073°49'0 0.6
2018-Feb-20 07:00N 40°26' W 073°48'2 3.8
2018-Feb-20 06:31N 40°28' W 073°49'0 0.8
2018-Feb-20 05:56N 40°28' W 073°48'1 1.3
2018-Feb-20 05:30N 40°28' W 073°49'1 1.3
2018-Feb-20 04:58N 40°27' W 073°50'2 4.3
2018-Feb-20 04:30N 40°29' W 073°52'1 1.5
2018-Feb-20 04:00N 40°30' W 073°51'0 0.8
2018-Feb-20 03:29N 40°29' W 073°51'0 0.9
2018-Feb-20 02:59N 40°29' W 073°51'0 0.9
2018-Feb-20 02:29N 40°28' W 073°51'0 0.9
2018-Feb-20 01:57N 40°28' W 073°51'1 2.0
2018-Feb-20 01:30N 40°28' W 073°52'2 3.7
2018-Feb-20 00:59N 40°28' W 073°50'0 0.7
2018-Feb-20 00:27N 40°27' W 073°50'0 0.2
2018-Feb-19 23:59N 40°27' W 073°50'0 0.7
2018-Feb-19 23:29N 40°27' W 073°50'1 0.9
2018-Feb-19 22:55N 40°27' W 073°50'1 3.0
2018-Feb-19 22:29N 40°27' W 073°49'0 0.6
2018-Feb-19 21:57N 40°27' W 073°49'0 0.7
2018-Feb-19 21:29N 40°27' W 073°50'1 2.2
2018-Feb-19 21:00N 40°27' W 073°48'1 1.5
2018-Feb-19 20:29N 40°26' W 073°47'1 1.2
2018-Feb-19 20:00N 40°27' W 073°48'0 0.7
2018-Feb-19 19:30N 40°27' W 073°48'0 0.5
2018-Feb-19 18:33N 40°27' W 073°48'0 0.4
2018-Feb-19 18:26N 40°27' W 073°48'0 0.4
2018-Feb-19 17:55N 40°27' W 073°48'0 0.6
2018-Feb-19 17:21N 40°26' W 073°49'0 1.2
2018-Feb-19 16:57N 40°26' W 073°48'2 4.4
2018-Feb-19 16:30N 40°27' W 073°50'0 0.8
2018-Feb-19 15:58N 40°27' W 073°50'1 1.6
2018-Feb-19 15:30N 40°26' W 073°49'0 0.3
2018-Feb-19 15:00N 40°26' W 073°49'0 0.3
2018-Feb-19 14:30N 40°26' W 073°49'0 0.9
2018-Feb-19 13:59N 40°27' W 073°49'1 1.9
2018-Feb-19 13:30N 40°28' W 073°50'0 0.8
2018-Feb-19 13:00N 40°28' W 073°50'1 1.5
2018-Feb-19 12:30N 40°28' W 073°51'3 5.5
2018-Feb-19 11:59N 40°28' W 073°47'0 0.5
2018-Feb-19 11:30N 40°28' W 073°47'0 0.6
2018-Feb-19 11:00N 40°28' W 073°48'0 0.6
2018-Feb-19 10:30N 40°28' W 073°48'0 0.8
2018-Feb-19 09:59N 40°27' W 073°49'0 0.7
2018-Feb-19 09:30N 40°27' W 073°49'0 0.7
2018-Feb-19 09:00N 40°27' W 073°49'1 1.5
2018-Feb-19 08:29N 40°27' W 073°48'0 0.9
2018-Feb-19 07:58N 40°26' W 073°48'0 0.5
2018-Feb-19 07:30N 40°26' W 073°48'2 3.1
2018-Feb-19 07:00N 40°27' W 073°50'0 0.1
2018-Feb-19 06:30N 40°27' W 073°50'0 0.0
2018-Feb-19 06:00N 40°27' W 073°50'0 0.0
2018-Feb-19 05:30N 40°27' W 073°50'0 0.7
2018-Feb-19 05:00N 40°27' W 073°50'0 0.2
2018-Feb-19 04:29N 40°27' W 073°50'1 1.4
2018-Feb-19 04:00N 40°28' W 073°49'1 1.5
2018-Feb-19 03:30N 40°27' W 073°50'0 0.2
2018-Feb-19 03:00N 40°27' W 073°50'1 1.2
2018-Feb-19 02:29N 40°27' W 073°50'0 0.2
2018-Feb-19 02:00N 40°27' W 073°50'1 2.3
2018-Feb-19 01:28N 40°27' W 073°49'1 2.0
2018-Feb-19 00:58N 40°26' W 073°48'0 0.1
2018-Feb-19 00:30N 40°26' W 073°48'0 0.2
2018-Feb-19 00:00N 40°26' W 073°48'0 0.1
2018-Feb-18 23:30N 40°26' W 073°48'0 0.1
2018-Feb-18 22:59N 40°26' W 073°48'1 1.8
2018-Feb-18 22:29N 40°27' W 073°49'0 0.3
2018-Feb-18 22:00N 40°27' W 073°49'1 1.4
2018-Feb-18 21:28N 40°27' W 073°48'0 0.4
2018-Feb-18 20:53N 40°27' W 073°49'0 0.5
2018-Feb-18 20:30N 40°27' W 073°49'1 1.0
2018-Feb-18 20:00N 40°27' W 073°49'1 1.5
2018-Feb-18 19:30N 40°27' W 073°49'1 1.4
2018-Feb-18 18:59N 40°26' W 073°48'0 0.6
2018-Feb-18 18:29N 40°26' W 073°48'1 0.9
2018-Feb-18 17:56N 40°26' W 073°48'2 5.4
2018-Feb-18 17:30N 40°28' W 073°50'1 1.5
2018-Feb-18 16:59N 40°28' W 073°51'0 0.8
2018-Feb-18 16:29N 40°28' W 073°51'1 1.1
2018-Feb-18 16:00N 40°28' W 073°50'0 0.7
2018-Feb-18 15:28N 40°28' W 073°50'2 3.1
2018-Feb-18 14:42N 40°25' W 073°49'0 1.1
2018-Feb-18 14:28N 40°26' W 073°49'1 1.4
2018-Feb-18 13:57N 40°26' W 073°50'1 1.4
2018-Feb-18 13:30N 40°27' W 073°50'0 0.5
2018-Feb-18 13:00N 40°27' W 073°50'1 1.4
2018-Feb-18 12:30N 40°27' W 073°51'1 1.3
2018-Feb-18 11:59N 40°27' W 073°51'1 1.5
2018-Feb-18 11:30N 40°28' W 073°52'2 3.5
2018-Feb-18 11:00N 40°27' W 073°50'4 7.0
2018-Feb-18 10:30N 40°27' W 073°45'1 1.1
2018-Feb-18 10:00N 40°27' W 073°46'1 1.0
2018-Feb-18 09:27N 40°27' W 073°46'0 0.9
2018-Feb-18 08:56N 40°27' W 073°47'1 1.7
2018-Feb-18 08:30N 40°27' W 073°48'0 1.0
2018-Feb-18 08:00N 40°27' W 073°48'0 0.6
2018-Feb-18 07:30N 40°26' W 073°48'0 0.1
2018-Feb-18 06:59N 40°26' W 073°48'2 3.8
2018-Feb-18 06:30N 40°27' W 073°50'1 1.9
2018-Feb-18 06:00N 40°28' W 073°51'0 0.2
2018-Feb-18 05:30N 40°28' W 073°51'0 0.2
2018-Feb-18 04:59N 40°28' W 073°51'0 0.6
2018-Feb-18 04:29N 40°28' W 073°51'1 1.3
2018-Feb-18 04:00N 40°28' W 073°51'0 0.4
2018-Feb-18 03:30N 40°27' W 073°51'2 4.0
2018-Feb-18 02:59N 40°26' W 073°48'1 1.5
2018-Feb-18 02:30N 40°27' W 073°48'0 0.4
2018-Feb-18 01:59N 40°27' W 073°48'3 7.0
2018-Feb-18 01:30N 40°27' W 073°53'0 0.8
2018-Feb-18 00:58N 40°27' W 073°53'0 0.5
2018-Feb-18 00:29N 40°27' W 073°53'0 0.7
2018-Feb-18 00:00N 40°27' W 073°52'0 0.8
2018-Feb-17 23:30N 40°28' W 073°52'0 0.8
2018-Feb-17 22:59N 40°27' W 073°51'2 3.5
2018-Feb-17 22:29N 40°27' W 073°49'2 3.3
2018-Feb-17 22:00N 40°27' W 073°51'2 3.0
2018-Feb-17 21:28N 40°27' W 073°49'1 1.5
2018-Feb-17 20:58N 40°26' W 073°48'2 3.7
2018-Feb-17 20:30N 40°27' W 073°51'1 1.1
2018-Feb-17 20:00N 40°27' W 073°51'0 0.7
2018-Feb-17 19:29N 40°28' W 073°51'0 0.3
2018-Feb-17 19:00N 40°27' W 073°51'0 0.3
2018-Feb-17 18:30N 40°27' W 073°51'0 0.3
2018-Feb-17 17:58N 40°27' W 073°51'1 2.6
2018-Feb-17 17:30N 40°27' W 073°52'0 0.6
2018-Feb-17 17:01N 40°28' W 073°52'0 0.9
2018-Feb-17 16:30N 40°27' W 073°52'0 0.5
2018-Feb-17 16:00N 40°27' W 073°51'0 0.5
2018-Feb-17 15:28N 40°27' W 073°51'0 0.6
2018-Feb-17 15:00N 40°27' W 073°51'0 0.7
2018-Feb-17 14:29N 40°27' W 073°50'0 0.7
2018-Feb-17 14:00N 40°27' W 073°50'1 1.4
2018-Feb-17 13:29N 40°27' W 073°51'0 0.5
2018-Feb-17 12:58N 40°27' W 073°50'0 0.6
2018-Feb-17 12:30N 40°27' W 073°50'0 0.5
2018-Feb-17 12:00N 40°27' W 073°50'1 1.1
2018-Feb-17 11:29N 40°28' W 073°50'1 1.3
2018-Feb-17 10:59N 40°27' W 073°51'0 0.6
2018-Feb-17 10:28N 40°28' W 073°50'0 0.1
2018-Feb-17 09:57N 40°28' W 073°50'2 3.7
2018-Feb-17 09:30N 40°26' W 073°49'0 0.7
2018-Feb-17 09:00N 40°27' W 073°49'1 1.2
2018-Feb-17 08:20N 40°26' W 073°48'0 1.0
2018-Feb-17 08:00N 40°26' W 073°48'0 0.8
2018-Feb-17 07:30N 40°27' W 073°48'1 2.4
2018-Feb-17 06:58N 40°27' W 073°50'1 2.3
2018-Feb-17 06:30N 40°28' W 073°51'0 0.2
2018-Feb-17 06:00N 40°28' W 073°51'1 1.2
2018-Feb-17 05:30N 40°27' W 073°51'1 1.8
2018-Feb-17 05:00N 40°27' W 073°50'1 2.3
2018-Feb-17 04:30N 40°27' W 073°48'1 2.8
2018-Feb-17 03:59N 40°27' W 073°50'2 3.2
2018-Feb-17 03:29N 40°26' W 073°48'1 1.6
2018-Feb-17 02:59N 40°27' W 073°49'1 1.6
2018-Feb-17 02:28N 40°27' W 073°49'1 1.6
2018-Feb-17 02:00N 40°28' W 073°50'0 0.8
2018-Feb-17 01:30N 40°28' W 073°50'1 1.7
2018-Feb-17 00:58N 40°27' W 073°50'0 0.5
2018-Feb-17 00:28N 40°27' W 073°50'1 2.7
2018-Feb-17 00:00N 40°26' W 073°49'0 0.4
2018-Feb-16 23:30N 40°26' W 073°49'1 1.3
2018-Feb-16 22:58N 40°26' W 073°48'0 0.9
2018-Feb-16 22:30N 40°27' W 073°49'0 0.8
2018-Feb-16 21:57N 40°27' W 073°49'0 0.9
2018-Feb-16 21:27N 40°27' W 073°50'1 1.2
2018-Feb-16 21:00N 40°27' W 073°50'1 1.6
2018-Feb-16 20:29N 40°28' W 073°51'1 2.9
2018-Feb-16 19:59N 40°27' W 073°50'2 3.4
2018-Feb-16 19:30N 40°26' W 073°47'0 0.7
2018-Feb-16 19:00N 40°27' W 073°47'1 1.0
2018-Feb-16 18:28N 40°26' W 073°48'0 1.0
2018-Feb-16 18:00N 40°26' W 073°48'1 1.9
2018-Feb-16 17:30N 40°27' W 073°49'2 3.5
2018-Feb-16 17:00N 40°28' W 073°51'1 1.2
2018-Feb-16 16:30N 40°28' W 073°51'1 2.5
2018-Feb-16 15:59N 40°27' W 073°50'1 1.7
2018-Feb-16 15:30N 40°28' W 073°49'0 0.9
2018-Feb-16 14:59N 40°28' W 073°48'0 0.6
2018-Feb-16 14:25N 40°28' W 073°49'0 0.4
2018-Feb-16 14:00N 40°27' W 073°49'1 2.9
2018-Feb-16 13:29N 40°26' W 073°49'1 1.4
2018-Feb-16 12:57N 40°27' W 073°48'0 0.3
2018-Feb-16 12:06N 40°27' W 073°48'0 1.3
2018-Feb-16 12:00N 40°26' W 073°48'0 0.8
2018-Feb-16 11:29N 40°27' W 073°49'2 5.0
2018-Feb-16 11:00N 40°28' W 073°51'2 4.3
2018-Feb-16 10:30N 40°27' W 073°49'0 0.5
2018-Feb-16 09:59N 40°27' W 073°49'1 1.0
2018-Feb-16 09:22N 40°26' W 073°48'0 0.7
2018-Feb-16 08:58N 40°26' W 073°48'0 0.3
2018-Feb-16 08:29N 40°26' W 073°48'1 1.1
2018-Feb-16 08:00N 40°27' W 073°48'2 3.3
2018-Feb-16 07:30N 40°28' W 073°50'2 3.6
2018-Feb-16 06:59N 40°28' W 073°48'0 0.2
2018-Feb-16 06:28N 40°28' W 073°48'1 1.2
2018-Feb-16 06:00N 40°28' W 073°48'0 0.8
2018-Feb-16 05:30N 40°28' W 073°48'0 0.7
2018-Feb-16 04:55N 40°28' W 073°49'0 0.7
2018-Feb-16 04:30N 40°27' W 073°49'1 1.3
2018-Feb-16 04:00N 40°27' W 073°50'1 1.5
2018-Feb-16 03:29N 40°27' W 073°50'0 0.5
2018-Feb-16 02:58N 40°27' W 073°50'0 0.4
2018-Feb-16 02:30N 40°26' W 073°50'0 0.9
2018-Feb-16 01:59N 40°27' W 073°50'0 0.8
2018-Feb-16 01:27N 40°27' W 073°50'0 0.4
2018-Feb-16 01:00N 40°27' W 073°50'1 2.8
2018-Feb-16 00:30N 40°28' W 073°49'0 0.9
2018-Feb-15 23:58N 40°28' W 073°49'0 0.5
2018-Feb-15 23:29N 40°28' W 073°49'1 1.1
2018-Feb-15 23:00N 40°27' W 073°50'1 1.5
2018-Feb-15 22:29N 40°28' W 073°50'0 0.6
2018-Feb-15 22:00N 40°28' W 073°50'0 0.4
2018-Feb-15 21:30N 40°27' W 073°50'0 0.2
2018-Feb-15 20:59N 40°27' W 073°50'2 4.3
2018-Feb-15 20:27N 40°26' W 073°47'0 0.6
2018-Feb-15 19:57N 40°26' W 073°47'0 1.0
2018-Feb-15 19:28N 40°26' W 073°48'1 1.8
2018-Feb-15 19:00N 40°27' W 073°48'0 0.7
2018-Feb-15 18:30N 40°27' W 073°48'0 0.4
2018-Feb-15 17:58N 40°27' W 073°48'2 4.3
2018-Feb-15 17:30N 40°29' W 073°49'0 0.5
2018-Feb-15 17:00N 40°28' W 073°49'1 0.9
2018-Feb-15 16:27N 40°28' W 073°49'0 0.8
2018-Feb-15 16:00N 40°28' W 073°49'1 1.1
2018-Feb-15 15:29N 40°28' W 073°50'0 0.8
2018-Feb-15 14:59N 40°28' W 073°50'0 0.7
2018-Feb-15 14:30N 40°27' W 073°50'1 2.2
2018-Feb-15 13:57N 40°27' W 073°48'0 0.6
2018-Feb-15 13:26N 40°26' W 073°48'0 0.4
2018-Feb-15 13:00N 40°26' W 073°49'2 4.0
2018-Feb-15 12:30N 40°28' W 073°50'0 0.9
2018-Feb-15 12:00N 40°28' W 073°50'0 0.6
2018-Feb-15 11:28N 40°27' W 073°50'1 2.4
2018-Feb-15 11:00N 40°28' W 073°51'0 0.1
2018-Feb-15 10:30N 40°28' W 073°51'0 0.5
2018-Feb-15 10:00N 40°28' W 073°51'0 0.6
2018-Feb-15 09:27N 40°28' W 073°51'1 1.9
2018-Feb-15 08:57N 40°27' W 073°50'0 0.3
2018-Feb-15 08:31N 40°27' W 073°50'1 2.9
2018-Feb-15 08:00N 40°26' W 073°48'0 0.5
2018-Feb-15 07:30N 40°26' W 073°48'1 1.0
2018-Feb-15 07:00N 40°26' W 073°48'2 5.0
2018-Feb-15 06:30N 40°29' W 073°48'0 0.6
2018-Feb-15 06:00N 40°29' W 073°48'0 0.7
2018-Feb-15 05:30N 40°29' W 073°48'0 0.9
2018-Feb-15 04:59N 40°29' W 073°49'0 1.0
2018-Feb-15 04:30N 40°29' W 073°50'1 1.0
2018-Feb-15 04:00N 40°29' W 073°50'0 0.7
2018-Feb-15 03:30N 40°28' W 073°51'1 2.4
2018-Feb-15 02:54N 40°27' W 073°49'0 0.9
2018-Feb-15 02:30N 40°27' W 073°50'2 3.1
2018-Feb-15 02:00N 40°29' W 073°49'1 0.9
2018-Feb-15 01:27N 40°28' W 073°49'0 0.9
2018-Feb-15 01:00N 40°28' W 073°50'0 0.9
2018-Feb-15 00:29N 40°27' W 073°50'0 0.9
2018-Feb-15 00:00N 40°27' W 073°50'0 1.0
2018-Feb-14 23:30N 40°26' W 073°50'1 1.0
2018-Feb-14 22:58N 40°26' W 073°50'4 7.7
2018-Feb-14 22:30N 40°29' W 073°52'1 1.5
2018-Feb-14 22:00N 40°28' W 073°52'2 3.2
2018-Feb-14 21:29N 40°28' W 073°50'0 0.8
2018-Feb-14 20:59N 40°28' W 073°50'0 0.6
2018-Feb-14 20:30N 40°27' W 073°50'2 3.2
2018-Feb-14 19:59N 40°26' W 073°48'1 1.1
2018-Feb-14 19:29N 40°26' W 073°49'1 1.0
2018-Feb-14 18:59N 40°26' W 073°48'0 0.3
2018-Feb-14 18:30N 40°26' W 073°48'0 0.7
2018-Feb-14 18:00N 40°26' W 073°49'0 0.7
2018-Feb-14 17:30N 40°26' W 073°49'0 0.1
2018-Feb-14 16:59N 40°26' W 073°49'0 0.5
2018-Feb-14 16:30N 40°26' W 073°49'0 0.8
2018-Feb-14 16:00N 40°27' W 073°49'1 1.0
2018-Feb-14 15:29N 40°27' W 073°49'2 3.5
2018-Feb-14 15:00N 40°28' W 073°50'1 1.6
2018-Feb-14 14:30N 40°27' W 073°50'1 1.4
2018-Feb-14 13:58N 40°28' W 073°51'0 0.6
2018-Feb-14 13:30N 40°28' W 073°51'3 5.5
2018-Feb-14 12:59N 40°27' W 073°48'0 0.3
2018-Feb-14 12:27N 40°26' W 073°48'1 1.3
2018-Feb-14 11:59N 40°26' W 073°48'0 0.7
2018-Feb-14 11:30N 40°27' W 073°49'1 1.7
2018-Feb-14 10:59N 40°27' W 073°50'2 3.7
2018-Feb-14 10:30N 40°25' W 073°50'0 0.6
2018-Feb-14 09:59N 40°25' W 073°49'0 0.5
2018-Feb-14 09:29N 40°26' W 073°49'0 0.5
2018-Feb-14 09:00N 40°26' W 073°49'0 0.8
2018-Feb-14 08:30N 40°26' W 073°49'1 1.2
2018-Feb-14 08:00N 40°26' W 073°48'0 0.4
2018-Feb-14 07:28N 40°26' W 073°48'1 1.1
2018-Feb-14 07:00N 40°27' W 073°48'0 0.1
2018-Feb-14 06:30N 40°27' W 073°48'0 0.5
2018-Feb-14 05:59N 40°27' W 073°48'0 0.6
2018-Feb-14 05:30N 40°27' W 073°48'2 3.9
2018-Feb-14 05:00N 40°27' W 073°50'0 0.4
2018-Feb-14 04:30N 40°27' W 073°50'1 1.3
2018-Feb-14 04:00N 40°28' W 073°51'1 1.1
2018-Feb-14 03:21N 40°27' W 073°50'0 0.1
2018-Feb-14 02:55N 40°27' W 073°50'0 0.1
2018-Feb-14 02:29N 40°27' W 073°50'1 2.6
2018-Feb-14 01:59N 40°28' W 073°48'1 2.4
2018-Feb-14 01:29N 40°28' W 073°50'0 0.6
2018-Feb-14 00:58N 40°28' W 073°50'0 0.2
2018-Feb-14 00:30N 40°28' W 073°50'0 0.3
2018-Feb-14 00:00N 40°27' W 073°50'0 0.9
2018-Feb-13 23:29N 40°27' W 073°50'0 0.4
2018-Feb-13 22:55N 40°27' W 073°50'0 0.4
2018-Feb-13 22:30N 40°27' W 073°49'0 0.5
2018-Feb-13 21:57N 40°27' W 073°49'0 0.5
2018-Feb-13 21:29N 40°26' W 073°49'0 0.6
2018-Feb-13 21:00N 40°26' W 073°49'1 2.7
2018-Feb-13 20:30N 40°28' W 073°48'1 1.5
2018-Feb-13 19:59N 40°28' W 073°49'0 0.8
2018-Feb-13 19:25N 40°28' W 073°48'0 0.7
2018-Feb-13 18:58N 40°28' W 073°48'0 0.6
2018-Feb-13 18:19N 40°27' W 073°48'0 0.5
2018-Feb-13 18:00N 40°27' W 073°48'0 0.5
2018-Feb-13 17:30N 40°27' W 073°48'0 0.2
2018-Feb-13 17:00N 40°27' W 073°48'4 8.6
2018-Feb-13 16:29N 40°28' W 073°53'2 4.3
2018-Feb-13 16:00N 40°26' W 073°51'0 0.3
2018-Feb-13 15:30N 40°26' W 073°51'0 0.3
2018-Feb-13 15:00N 40°27' W 073°51'0 0.5
2018-Feb-13 14:30N 40°27' W 073°51'0 0.6
2018-Feb-13 13:54N 40°27' W 073°50'0 0.9
2018-Feb-13 13:30N 40°27' W 073°50'0 0.7
2018-Feb-13 13:00N 40°28' W 073°50'2 3.7
2018-Feb-13 12:28N 40°26' W 073°48'1 1.0
2018-Feb-13 11:51N 40°27' W 073°48'0 0.9
2018-Feb-13 11:21N 40°26' W 073°48'1 1.8
2018-Feb-13 10:58N 40°27' W 073°49'0 0.3
2018-Feb-13 10:29N 40°27' W 073°49'0 0.4
2018-Feb-13 09:59N 40°26' W 073°48'0 0.3
2018-Feb-13 09:30N 40°27' W 073°49'1 1.3
2018-Feb-13 09:00N 40°26' W 073°48'0 0.4
2018-Feb-13 08:29N 40°26' W 073°48'1 1.5
2018-Feb-13 07:59N 40°26' W 073°48'1 3.1
2018-Feb-13 07:30N 40°27' W 073°49'0 0.7
2018-Feb-13 07:00N 40°28' W 073°50'2 3.1
2018-Feb-13 06:30N 40°26' W 073°50'1 1.2
2018-Feb-13 06:00N 40°27' W 073°50'1 1.4
2018-Feb-13 05:29N 40°27' W 073°50'1 1.4
2018-Feb-13 05:00N 40°28' W 073°50'1 1.3
2018-Feb-13 04:30N 40°27' W 073°50'1 1.1
2018-Feb-13 04:00N 40°27' W 073°50'1 1.4
2018-Feb-13 03:30N 40°28' W 073°50'1 1.2
2018-Feb-13 03:00N 40°28' W 073°51'1 2.5
2018-Feb-13 02:30N 40°27' W 073°50'1 1.7
2018-Feb-13 02:00N 40°27' W 073°51'2 3.2
2018-Feb-13 01:30N 40°26' W 073°49'1 1.9
2018-Feb-13 00:59N 40°27' W 073°49'1 2.2
2018-Feb-13 00:29N 40°28' W 073°51'0 0.8
2018-Feb-12 23:58N 40°28' W 073°51'0 0.7
2018-Feb-12 23:30N 40°28' W 073°51'2 4.5
2018-Feb-12 23:00N 40°26' W 073°49'  
Track history (hours):
 
Tides and Currents Weather Stations Pressure Air Temp Water Temp Dewpoint Dewpoint Depression Visibility Wind Speed Wind Dir Waves Ship Positions

New York

Owner: UNITED SANDY HOOK PILOTS ASSOC, STATEN ISLAND, NY. More information available from US FCC via Universal Licensing System and Coast Guard Vessel Documentation Center.

Last reported at 2018-Feb-22 22:58 UTC. Time now 2018-Feb-22 23:04 UTC.
Position N 40°27' W 073°48'.

Length 55 m; draft 5 m.

Type: . MMSI: 367008090.

Date/timePositionNaut miles runAvg speedWind from/ knotsBaromVisibWave heightAir tempDewpointWater temp
2018-Feb-22 22:58N 40°27' W 073°48'2 3.5
2018-Feb-22 22:29N 40°27' W 073°50'2 3.8
2018-Feb-22 21:58N 40°25' W 073°49'0 1.0
2018-Feb-22 21:30N 40°26' W 073°49'1 1.1
2018-Feb-22 21:00N 40°26' W 073°49'1 1.0
2018-Feb-22 20:25N 40°27' W 073°48'1 1.4
2018-Feb-22 19:54N 40°27' W 073°47'2 5.2
2018-Feb-22 19:30N 40°27' W 073°50'4 7.5
2018-Feb-22 19:00N 40°27' W 073°55'2 3.4
2018-Feb-22 18:30N 40°28' W 073°53'1 1.0
2018-Feb-22 17:59N 40°28' W 073°52'1 2.2
2018-Feb-22 17:30N 40°27' W 073°51'1 2.8
2018-Feb-22 17:00N 40°26' W 073°50'1 1.0
2018-Feb-22 16:29N 40°26' W 073°50'1 1.1
2018-Feb-22 16:00N 40°26' W 073°49'1 1.1
2018-Feb-22 15:28N 40°26' W 073°48'1 1.5
2018-Feb-22 15:00N 40°27' W 073°48'0 0.2
2018-Feb-22 14:30N 40°26' W 073°49'2 3.8
2018-Feb-22 13:58N 40°27' W 073°51'1 1.2
2018-Feb-22 13:30N 40°27' W 073°51'1 1.2
2018-Feb-22 13:00N 40°27' W 073°50'0 0.9
2018-Feb-22 12:30N 40°28' W 073°50'0 0.8
2018-Feb-22 11:58N 40°28' W 073°49'1 2.4
2018-Feb-22 11:30N 40°27' W 073°50'0 0.3
2018-Feb-22 11:00N 40°27' W 073°50'1 1.6
2018-Feb-22 10:28N 40°26' W 073°50'0 0.9
2018-Feb-22 09:59N 40°26' W 073°49'1 1.3
2018-Feb-22 09:30N 40°27' W 073°50'1 2.2
2018-Feb-22 08:59N 40°27' W 073°48'1 1.5
2018-Feb-22 08:30N 40°27' W 073°49'1 1.6
2018-Feb-22 08:00N 40°26' W 073°49'2 3.4
2018-Feb-22 07:29N 40°27' W 073°50'0 0.2
2018-Feb-22 06:59N 40°27' W 073°50'0 0.8
2018-Feb-22 06:30N 40°27' W 073°51'1 1.2
2018-Feb-22 06:00N 40°28' W 073°51'0 0.8
2018-Feb-22 05:30N 40°27' W 073°50'1 1.0
2018-Feb-22 04:59N 40°27' W 073°50'0 0.5
2018-Feb-22 04:29N 40°27' W 073°50'0 0.7
2018-Feb-22 04:00N 40°27' W 073°50'0 0.5
2018-Feb-22 03:30N 40°27' W 073°50'0 0.3
2018-Feb-22 03:00N 40°27' W 073°50'0 0.2
2018-Feb-22 02:30N 40°27' W 073°50'0 0.2
2018-Feb-22 01:58N 40°27' W 073°50'0 0.1
2018-Feb-22 01:30N 40°27' W 073°50'0 0.1
2018-Feb-22 00:59N 40°27' W 073°50'0 1.0
2018-Feb-22 00:29N 40°27' W 073°49'0 0.6
2018-Feb-21 23:57N 40°26' W 073°50'1 2.5
2018-Feb-21 23:30N 40°26' W 073°48'2 2.8
2018-Feb-21 22:55N 40°27' W 073°50'2 3.6
2018-Feb-21 22:30N 40°28' W 073°48'1 2.5
2018-Feb-21 21:59N 40°28' W 073°46'1 1.2
2018-Feb-21 21:27N 40°28' W 073°47'1 1.2
2018-Feb-21 20:59N 40°28' W 073°48'1 1.1
2018-Feb-21 20:30N 40°27' W 073°48'1 1.2
2018-Feb-21 20:00N 40°27' W 073°49'1 1.0
2018-Feb-21 19:30N 40°27' W 073°49'1 2.1
2018-Feb-21 18:57N 40°26' W 073°48'0 0.6
2018-Feb-21 18:29N 40°26' W 073°48'3 5.1
2018-Feb-21 17:59N 40°29' W 073°49'0 1.0
2018-Feb-21 17:28N 40°28' W 073°49'0 0.9
2018-Feb-21 16:59N 40°28' W 073°49'1 1.1
2018-Feb-21 16:28N 40°27' W 073°49'1 1.4
2018-Feb-21 15:59N 40°27' W 073°49'1 1.9
2018-Feb-21 15:30N 40°26' W 073°49'0 0.6
2018-Feb-21 14:59N 40°25' W 073°49'0 0.8
2018-Feb-21 14:30N 40°26' W 073°48'3 4.9
2018-Feb-21 13:59N 40°28' W 073°50'1 1.4
2018-Feb-21 13:29N 40°28' W 073°51'1 1.9
2018-Feb-21 12:59N 40°28' W 073°50'2 4.1
2018-Feb-21 12:29N 40°26' W 073°49'0 0.5
2018-Feb-21 11:59N 40°25' W 073°49'1 0.7
2018-Feb-21 11:11N 40°26' W 073°49'1 6.5
2018-Feb-21 11:00N 40°27' W 073°48'2 4.1
2018-Feb-21 10:30N 40°29' W 073°48'0 0.9
2018-Feb-21 10:00N 40°28' W 073°49'0 1.0
2018-Feb-21 09:30N 40°28' W 073°49'0 0.9
2018-Feb-21 09:00N 40°28' W 073°49'2 2.3
2018-Feb-21 08:19N 40°27' W 073°48'0 0.3
2018-Feb-21 07:54N 40°27' W 073°47'0 0.5
2018-Feb-21 07:21N 40°27' W 073°48'1 1.1
2018-Feb-21 06:43N 40°26' W 073°48'0 1.0
2018-Feb-21 06:27N 40°26' W 073°48'2 3.6
2018-Feb-21 06:00N 40°27' W 073°49'1 1.5
2018-Feb-21 05:28N 40°27' W 073°50'1 1.1
2018-Feb-21 05:00N 40°27' W 073°50'1 1.0
2018-Feb-21 04:30N 40°26' W 073°50'1 1.6
2018-Feb-21 04:00N 40°26' W 073°51'1 2.7
2018-Feb-21 03:30N 40°28' W 073°50'1 1.9
2018-Feb-21 03:00N 40°27' W 073°50'2 3.8
2018-Feb-21 02:29N 40°29' W 073°50'0 1.0
2018-Feb-21 02:00N 40°28' W 073°49'0 0.9
2018-Feb-21 01:29N 40°28' W 073°49'1 1.4
2018-Feb-21 01:00N 40°27' W 073°50'1 2.4
2018-Feb-21 00:30N 40°26' W 073°49'0 0.8
2018-Feb-20 23:58N 40°26' W 073°49'2 3.7
2018-Feb-20 23:28N 40°28' W 073°48'1 1.1
2018-Feb-20 22:58N 40°27' W 073°48'1 1.3
2018-Feb-20 22:30N 40°27' W 073°48'0 0.2
2018-Feb-20 22:00N 40°26' W 073°48'2 3.4
2018-Feb-20 21:30N 40°27' W 073°50'0 0.3
2018-Feb-20 20:59N 40°27' W 073°50'0 0.2
2018-Feb-20 20:30N 40°27' W 073°50'1 1.9
2018-Feb-20 19:59N 40°27' W 073°49'1 1.6
2018-Feb-20 19:29N 40°27' W 073°48'2 4.6
2018-Feb-20 19:00N 40°27' W 073°51'1 1.2
2018-Feb-20 18:24N 40°27' W 073°50'0 0.7
2018-Feb-20 17:58N 40°27' W 073°50'1 1.8
2018-Feb-20 17:30N 40°27' W 073°49'0 0.2
2018-Feb-20 17:00N 40°27' W 073°49'0 0.3
2018-Feb-20 16:28N 40°27' W 073°49'0 0.9
2018-Feb-20 16:00N 40°27' W 073°48'0 0.7
2018-Feb-20 15:21N 40°27' W 073°49'1 0.5
2018-Feb-20 14:05N 40°26' W 073°49'0 0.9
2018-Feb-20 13:55N 40°26' W 073°49'0 0.4
2018-Feb-20 13:30N 40°26' W 073°49'2 2.6
2018-Feb-20 12:51N 40°27' W 073°50'1 1.5
2018-Feb-20 12:29N 40°27' W 073°50'1 1.4
2018-Feb-20 11:58N 40°27' W 073°49'0 0.8
2018-Feb-20 11:30N 40°27' W 073°49'0 0.8
2018-Feb-20 11:00N 40°27' W 073°48'0 0.3
2018-Feb-20 10:30N 40°27' W 073°48'0 0.8
2018-Feb-20 10:00N 40°26' W 073°48'0 0.2
2018-Feb-20 09:26N 40°26' W 073°48'1 1.2
2018-Feb-20 08:58N 40°27' W 073°49'0 0.9
2018-Feb-20 08:28N 40°26' W 073°48'0 0.8
2018-Feb-20 07:59N 40°26' W 073°48'0 0.9
2018-Feb-20 07:29N 40°26' W 073°49'0 0.6
2018-Feb-20 07:00N 40°26' W 073°48'2 3.8
2018-Feb-20 06:31N 40°28' W 073°49'0 0.8
2018-Feb-20 05:56N 40°28' W 073°48'1 1.3
2018-Feb-20 05:30N 40°28' W 073°49'1 1.3
2018-Feb-20 04:58N 40°27' W 073°50'2 4.3
2018-Feb-20 04:30N 40°29' W 073°52'1 1.5
2018-Feb-20 04:00N 40°30' W 073°51'0 0.8
2018-Feb-20 03:29N 40°29' W 073°51'0 0.9
2018-Feb-20 02:59N 40°29' W 073°51'0 0.9
2018-Feb-20 02:29N 40°28' W 073°51'0 0.9
2018-Feb-20 01:57N 40°28' W 073°51'1 2.0
2018-Feb-20 01:30N 40°28' W 073°52'2 3.7
2018-Feb-20 00:59N 40°28' W 073°50'0 0.7
2018-Feb-20 00:27N 40°27' W 073°50'0 0.2
2018-Feb-19 23:59N 40°27' W 073°50'0 0.7
2018-Feb-19 23:29N 40°27' W 073°50'1 0.9
2018-Feb-19 22:55N 40°27' W 073°50'1 3.0
2018-Feb-19 22:29N 40°27' W 073°49'0 0.6
2018-Feb-19 21:57N 40°27' W 073°49'0 0.7
2018-Feb-19 21:29N 40°27' W 073°50'1 2.2
2018-Feb-19 21:00N 40°27' W 073°48'1 1.5
2018-Feb-19 20:29N 40°26' W 073°47'1 1.2
2018-Feb-19 20:00N 40°27' W 073°48'0 0.7
2018-Feb-19 19:30N 40°27' W 073°48'0 0.5
2018-Feb-19 18:33N 40°27' W 073°48'0 0.4
2018-Feb-19 18:26N 40°27' W 073°48'0 0.4
2018-Feb-19 17:55N 40°27' W 073°48'0 0.6
2018-Feb-19 17:21N 40°26' W 073°49'0 1.2
2018-Feb-19 16:57N 40°26' W 073°48'2 4.4
2018-Feb-19 16:30N 40°27' W 073°50'0 0.8
2018-Feb-19 15:58N 40°27' W 073°50'1 1.6
2018-Feb-19 15:30N 40°26' W 073°49'0 0.3
2018-Feb-19 15:00N 40°26' W 073°49'0 0.3
2018-Feb-19 14:30N 40°26' W 073°49'0 0.9
2018-Feb-19 13:59N 40°27' W 073°49'1 1.9
2018-Feb-19 13:30N 40°28' W 073°50'0 0.8
2018-Feb-19 13:00N 40°28' W 073°50'1 1.5
2018-Feb-19 12:30N 40°28' W 073°51'3 5.5
2018-Feb-19 11:59N 40°28' W 073°47'0 0.5
2018-Feb-19 11:30N 40°28' W 073°47'0 0.6
2018-Feb-19 11:00N 40°28' W 073°48'0 0.6
2018-Feb-19 10:30N 40°28' W 073°48'0 0.8
2018-Feb-19 09:59N 40°27' W 073°49'0 0.7
2018-Feb-19 09:30N 40°27' W 073°49'0 0.7
2018-Feb-19 09:00N 40°27' W 073°49'1 1.5
2018-Feb-19 08:29N 40°27' W 073°48'0 0.9
2018-Feb-19 07:58N 40°26' W 073°48'0 0.5
2018-Feb-19 07:30N 40°26' W 073°48'2 3.1
2018-Feb-19 07:00N 40°27' W 073°50'0 0.1
2018-Feb-19 06:30N 40°27' W 073°50'0 0.0
2018-Feb-19 06:00N 40°27' W 073°50'0 0.0
2018-Feb-19 05:30N 40°27' W 073°50'0 0.7
2018-Feb-19 05:00N 40°27' W 073°50'0 0.2
2018-Feb-19 04:29N 40°27' W 073°50'1 1.4
2018-Feb-19 04:00N 40°28' W 073°49'1 1.5
2018-Feb-19 03:30N 40°27' W 073°50'0 0.2
2018-Feb-19 03:00N 40°27' W 073°50'1 1.2
2018-Feb-19 02:29N 40°27' W 073°50'0 0.2
2018-Feb-19 02:00N 40°27' W 073°50'1 2.3
2018-Feb-19 01:28N 40°27' W 073°49'1 2.0
2018-Feb-19 00:58N 40°26' W 073°48'0 0.1
2018-Feb-19 00:30N 40°26' W 073°48'0 0.2
2018-Feb-19 00:00N 40°26' W 073°48'0 0.1
2018-Feb-18 23:30N 40°26' W 073°48'0 0.1
2018-Feb-18 22:59N 40°26' W 073°48'1 1.8
2018-Feb-18 22:29N 40°27' W 073°49'0 0.3
2018-Feb-18 22:00N 40°27' W 073°49'1 1.4
2018-Feb-18 21:28N 40°27' W 073°48'0 0.4
2018-Feb-18 20:53N 40°27' W 073°49'0 0.5
2018-Feb-18 20:30N 40°27' W 073°49'1 1.0
2018-Feb-18 20:00N 40°27' W 073°49'1 1.5
2018-Feb-18 19:30N 40°27' W 073°49'1 1.4
2018-Feb-18 18:59N 40°26' W 073°48'0 0.6
2018-Feb-18 18:29N 40°26' W 073°48'1 0.9
2018-Feb-18 17:56N 40°26' W 073°48'2 5.4
2018-Feb-18 17:30N 40°28' W 073°50'1 1.5
2018-Feb-18 16:59N 40°28' W 073°51'0 0.8
2018-Feb-18 16:29N 40°28' W 073°51'1 1.1
2018-Feb-18 16:00N 40°28' W 073°50'0 0.7
2018-Feb-18 15:28N 40°28' W 073°50'2 3.1
2018-Feb-18 14:42N 40°25' W 073°49'0 1.1
2018-Feb-18 14:28N 40°26' W 073°49'1 1.4
2018-Feb-18 13:57N 40°26' W 073°50'1 1.4
2018-Feb-18 13:30N 40°27' W 073°50'0 0.5
2018-Feb-18 13:00N 40°27' W 073°50'1 1.4
2018-Feb-18 12:30N 40°27' W 073°51'1 1.3
2018-Feb-18 11:59N 40°27' W 073°51'1 1.5
2018-Feb-18 11:30N 40°28' W 073°52'2 3.5
2018-Feb-18 11:00N 40°27' W 073°50'4 7.0
2018-Feb-18 10:30N 40°27' W 073°45'1 1.1
2018-Feb-18 10:00N 40°27' W 073°46'1 1.0
2018-Feb-18 09:27N 40°27' W 073°46'0 0.9
2018-Feb-18 08:56N 40°27' W 073°47'1 1.7
2018-Feb-18 08:30N 40°27' W 073°48'0 1.0
2018-Feb-18 08:00N 40°27' W 073°48'0 0.6
2018-Feb-18 07:30N 40°26' W 073°48'0 0.1
2018-Feb-18 06:59N 40°26' W 073°48'2 3.8
2018-Feb-18 06:30N 40°27' W 073°50'1 1.9
2018-Feb-18 06:00N 40°28' W 073°51'0 0.2
2018-Feb-18 05:30N 40°28' W 073°51'0 0.2
2018-Feb-18 04:59N 40°28' W 073°51'0 0.6
2018-Feb-18 04:29N 40°28' W 073°51'1 1.3
2018-Feb-18 04:00N 40°28' W 073°51'0 0.4
2018-Feb-18 03:30N 40°27' W 073°51'2 4.0
2018-Feb-18 02:59N 40°26' W 073°48'1 1.5
2018-Feb-18 02:30N 40°27' W 073°48'0 0.4
2018-Feb-18 01:59N 40°27' W 073°48'3 7.0
2018-Feb-18 01:30N 40°27' W 073°53'0 0.8
2018-Feb-18 00:58N 40°27' W 073°53'0 0.5
2018-Feb-18 00:29N 40°27' W 073°53'0 0.7
2018-Feb-18 00:00N 40°27' W 073°52'0 0.8
2018-Feb-17 23:30N 40°28' W 073°52'0 0.8
2018-Feb-17 22:59N 40°27' W 073°51'2 3.5
2018-Feb-17 22:29N 40°27' W 073°49'2 3.3
2018-Feb-17 22:00N 40°27' W 073°51'2 3.0
2018-Feb-17 21:28N 40°27' W 073°49'1 1.5
2018-Feb-17 20:58N 40°26' W 073°48'2 3.7
2018-Feb-17 20:30N 40°27' W 073°51'1 1.1
2018-Feb-17 20:00N 40°27' W 073°51'0 0.7
2018-Feb-17 19:29N 40°28' W 073°51'0 0.3
2018-Feb-17 19:00N 40°27' W 073°51'0 0.3
2018-Feb-17 18:30N 40°27' W 073°51'0 0.3
2018-Feb-17 17:58N 40°27' W 073°51'1 2.6
2018-Feb-17 17:30N 40°27' W 073°52'0 0.6
2018-Feb-17 17:01N 40°28' W 073°52'0 0.9
2018-Feb-17 16:30N 40°27' W 073°52'0 0.5
2018-Feb-17 16:00N 40°27' W 073°51'0 0.5
2018-Feb-17 15:28N 40°27' W 073°51'0 0.6
2018-Feb-17 15:00N 40°27' W 073°51'0 0.7
2018-Feb-17 14:29N 40°27' W 073°50'0 0.7
2018-Feb-17 14:00N 40°27' W 073°50'1 1.4
2018-Feb-17 13:29N 40°27' W 073°51'0 0.5
2018-Feb-17 12:58N 40°27' W 073°50'0 0.6
2018-Feb-17 12:30N 40°27' W 073°50'0 0.5
2018-Feb-17 12:00N 40°27' W 073°50'1 1.1
2018-Feb-17 11:29N 40°28' W 073°50'1 1.3
2018-Feb-17 10:59N 40°27' W 073°51'0 0.6
2018-Feb-17 10:28N 40°28' W 073°50'0 0.1
2018-Feb-17 09:57N 40°28' W 073°50'2 3.7
2018-Feb-17 09:30N 40°26' W 073°49'0 0.7
2018-Feb-17 09:00N 40°27' W 073°49'1 1.2
2018-Feb-17 08:20N 40°26' W 073°48'0 1.0
2018-Feb-17 08:00N 40°26' W 073°48'0 0.8
2018-Feb-17 07:30N 40°27' W 073°48'1 2.4
2018-Feb-17 06:58N 40°27' W 073°50'1 2.3
2018-Feb-17 06:30N 40°28' W 073°51'0 0.2
2018-Feb-17 06:00N 40°28' W 073°51'1 1.2
2018-Feb-17 05:30N 40°27' W 073°51'1 1.8
2018-Feb-17 05:00N 40°27' W 073°50'1 2.3
2018-Feb-17 04:30N 40°27' W 073°48'1 2.8
2018-Feb-17 03:59N 40°27' W 073°50'2 3.2
2018-Feb-17 03:29N 40°26' W 073°48'1 1.6
2018-Feb-17 02:59N 40°27' W 073°49'1 1.6
2018-Feb-17 02:28N 40°27' W 073°49'1 1.6
2018-Feb-17 02:00N 40°28' W 073°50'0 0.8
2018-Feb-17 01:30N 40°28' W 073°50'1 1.7
2018-Feb-17 00:58N 40°27' W 073°50'0 0.5
2018-Feb-17 00:28N 40°27' W 073°50'1 2.7
2018-Feb-17 00:00N 40°26' W 073°49'0 0.4
2018-Feb-16 23:30N 40°26' W 073°49'1 1.3
2018-Feb-16 22:58N 40°26' W 073°48'0 0.9
2018-Feb-16 22:30N 40°27' W 073°49'0 0.8
2018-Feb-16 21:57N 40°27' W 073°49'0 0.9
2018-Feb-16 21:27N 40°27' W 073°50'1 1.2
2018-Feb-16 21:00N 40°27' W 073°50'1 1.6
2018-Feb-16 20:29N 40°28' W 073°51'1 2.9
2018-Feb-16 19:59N 40°27' W 073°50'2 3.4
2018-Feb-16 19:30N 40°26' W 073°47'0 0.7
2018-Feb-16 19:00N 40°27' W 073°47'1 1.0
2018-Feb-16 18:28N 40°26' W 073°48'0 1.0
2018-Feb-16 18:00N 40°26' W 073°48'1 1.9
2018-Feb-16 17:30N 40°27' W 073°49'2 3.5
2018-Feb-16 17:00N 40°28' W 073°51'1 1.2
2018-Feb-16 16:30N 40°28' W 073°51'1 2.5
2018-Feb-16 15:59N 40°27' W 073°50'1 1.7
2018-Feb-16 15:30N 40°28' W 073°49'0 0.9
2018-Feb-16 14:59N 40°28' W 073°48'0 0.6
2018-Feb-16 14:25N 40°28' W 073°49'0 0.4
2018-Feb-16 14:00N 40°27' W 073°49'1 2.9
2018-Feb-16 13:29N 40°26' W 073°49'1 1.4
2018-Feb-16 12:57N 40°27' W 073°48'0 0.3
2018-Feb-16 12:06N 40°27' W 073°48'0 1.3
2018-Feb-16 12:00N 40°26' W 073°48'0 0.8
2018-Feb-16 11:29N 40°27' W 073°49'2 5.0
2018-Feb-16 11:00N 40°28' W 073°51'2 4.3
2018-Feb-16 10:30N 40°27' W 073°49'0 0.5
2018-Feb-16 09:59N 40°27' W 073°49'1 1.0
2018-Feb-16 09:22N 40°26' W 073°48'0 0.7
2018-Feb-16 08:58N 40°26' W 073°48'0 0.3
2018-Feb-16 08:29N 40°26' W 073°48'1 1.1
2018-Feb-16 08:00N 40°27' W 073°48'2 3.3
2018-Feb-16 07:30N 40°28' W 073°50'2 3.6
2018-Feb-16 06:59N 40°28' W 073°48'0 0.2
2018-Feb-16 06:28N 40°28' W 073°48'1 1.2
2018-Feb-16 06:00N 40°28' W 073°48'0 0.8
2018-Feb-16 05:30N 40°28' W 073°48'0 0.7
2018-Feb-16 04:55N 40°28' W 073°49'0 0.7
2018-Feb-16 04:30N 40°27' W 073°49'1 1.3
2018-Feb-16 04:00N 40°27' W 073°50'1 1.5
2018-Feb-16 03:29N 40°27' W 073°50'0 0.5
2018-Feb-16 02:58N 40°27' W 073°50'0 0.4
2018-Feb-16 02:30N 40°26' W 073°50'0 0.9
2018-Feb-16 01:59N 40°27' W 073°50'0 0.8
2018-Feb-16 01:27N 40°27' W 073°50'0 0.4
2018-Feb-16 01:00N 40°27' W 073°50'1 2.8
2018-Feb-16 00:30N 40°28' W 073°49'0 0.9
2018-Feb-15 23:58N 40°28' W 073°49'0 0.5
2018-Feb-15 23:29N 40°28' W 073°49'1 1.1
2018-Feb-15 23:00N 40°27' W 073°50'1 1.5
2018-Feb-15 22:29N 40°28' W 073°50'0 0.6
2018-Feb-15 22:00N 40°28' W 073°50'0 0.4
2018-Feb-15 21:30N 40°27' W 073°50'0 0.2
2018-Feb-15 20:59N 40°27' W 073°50'2 4.3
2018-Feb-15 20:27N 40°26' W 073°47'0 0.6
2018-Feb-15 19:57N 40°26' W 073°47'0 1.0
2018-Feb-15 19:28N 40°26' W 073°48'1 1.8
2018-Feb-15 19:00N 40°27' W 073°48'0 0.7
2018-Feb-15 18:30N 40°27' W 073°48'0 0.4
2018-Feb-15 17:58N 40°27' W 073°48'2 4.3
2018-Feb-15 17:30N 40°29' W 073°49'0 0.5
2018-Feb-15 17:00N 40°28' W 073°49'1 0.9
2018-Feb-15 16:27N 40°28' W 073°49'0 0.8
2018-Feb-15 16:00N 40°28' W 073°49'1 1.1
2018-Feb-15 15:29N 40°28' W 073°50'0 0.8
2018-Feb-15 14:59N 40°28' W 073°50'0 0.7
2018-Feb-15 14:30N 40°27' W 073°50'1 2.2
2018-Feb-15 13:57N 40°27' W 073°48'0 0.6
2018-Feb-15 13:26N 40°26' W 073°48'0 0.4
2018-Feb-15 13:00N 40°26' W 073°49'2 4.0
2018-Feb-15 12:30N 40°28' W 073°50'0 0.9
2018-Feb-15 12:00N 40°28' W 073°50'0 0.6
2018-Feb-15 11:28N 40°27' W 073°50'1 2.4
2018-Feb-15 11:00N 40°28' W 073°51'0 0.1
2018-Feb-15 10:30N 40°28' W 073°51'0 0.5
2018-Feb-15 10:00N 40°28' W 073°51'0 0.6
2018-Feb-15 09:27N 40°28' W 073°51'1 1.9
2018-Feb-15 08:57N 40°27' W 073°50'0 0.3
2018-Feb-15 08:31N 40°27' W 073°50'1 2.9
2018-Feb-15 08:00N 40°26' W 073°48'0 0.5
2018-Feb-15 07:30N 40°26' W 073°48'1 1.0
2018-Feb-15 07:00N 40°26' W 073°48'2 5.0
2018-Feb-15 06:30N 40°29' W 073°48'0 0.6
2018-Feb-15 06:00N 40°29' W 073°48'0 0.7
2018-Feb-15 05:30N 40°29' W 073°48'0 0.9
2018-Feb-15 04:59N 40°29' W 073°49'0 1.0
2018-Feb-15 04:30N 40°29' W 073°50'1 1.0
2018-Feb-15 04:00N 40°29' W 073°50'0 0.7
2018-Feb-15 03:30N 40°28' W 073°51'1 2.4
2018-Feb-15 02:54N 40°27' W 073°49'0 0.9
2018-Feb-15 02:30N 40°27' W 073°50'2 3.1
2018-Feb-15 02:00N 40°29' W 073°49'1 0.9
2018-Feb-15 01:27N 40°28' W 073°49'0 0.9
2018-Feb-15 01:00N 40°28' W 073°50'0 0.9
2018-Feb-15 00:29N 40°27' W 073°50'0 0.9
2018-Feb-15 00:00N 40°27' W 073°50'0 1.0
2018-Feb-14 23:30N 40°26' W 073°50'1 1.0
2018-Feb-14 22:58N 40°26' W 073°50'4 7.7
2018-Feb-14 22:30N 40°29' W 073°52'1 1.5
2018-Feb-14 22:00N 40°28' W 073°52'2 3.2
2018-Feb-14 21:29N 40°28' W 073°50'0 0.8
2018-Feb-14 20:59N 40°28' W 073°50'0 0.6
2018-Feb-14 20:30N 40°27' W 073°50'2 3.2
2018-Feb-14 19:59N 40°26' W 073°48'1 1.1
2018-Feb-14 19:29N 40°26' W 073°49'1 1.0
2018-Feb-14 18:59N 40°26' W 073°48'0 0.3
2018-Feb-14 18:30N 40°26' W 073°48'0 0.7
2018-Feb-14 18:00N 40°26' W 073°49'0 0.7
2018-Feb-14 17:30N 40°26' W 073°49'0 0.1
2018-Feb-14 16:59N 40°26' W 073°49'0 0.5
2018-Feb-14 16:30N 40°26' W 073°49'0 0.8
2018-Feb-14 16:00N 40°27' W 073°49'1 1.0
2018-Feb-14 15:29N 40°27' W 073°49'2 3.5
2018-Feb-14 15:00N 40°28' W 073°50'1 1.6
2018-Feb-14 14:30N 40°27' W 073°50'1 1.4
2018-Feb-14 13:58N 40°28' W 073°51'0 0.6
2018-Feb-14 13:30N 40°28' W 073°51'3 5.5
2018-Feb-14 12:59N 40°27' W 073°48'0 0.3
2018-Feb-14 12:27N 40°26' W 073°48'1 1.3
2018-Feb-14 11:59N 40°26' W 073°48'0 0.7
2018-Feb-14 11:30N 40°27' W 073°49'1 1.7
2018-Feb-14 10:59N 40°27' W 073°50'2 3.7
2018-Feb-14 10:30N 40°25' W 073°50'0 0.6
2018-Feb-14 09:59N 40°25' W 073°49'0 0.5
2018-Feb-14 09:29N 40°26' W 073°49'0 0.5
2018-Feb-14 09:00N 40°26' W 073°49'0 0.8
2018-Feb-14 08:30N 40°26' W 073°49'1 1.2
2018-Feb-14 08:00N 40°26' W 073°48'0 0.4
2018-Feb-14 07:28N 40°26' W 073°48'1 1.1
2018-Feb-14 07:00N 40°27' W 073°48'0 0.1
2018-Feb-14 06:30N 40°27' W 073°48'0 0.5
2018-Feb-14 05:59N 40°27' W 073°48'0 0.6
2018-Feb-14 05:30N 40°27' W 073°48'2 3.9
2018-Feb-14 05:00N 40°27' W 073°50'0 0.4
2018-Feb-14 04:30N 40°27' W 073°50'1 1.3
2018-Feb-14 04:00N 40°28' W 073°51'1 1.1
2018-Feb-14 03:21N 40°27' W 073°50'0 0.1
2018-Feb-14 02:55N 40°27' W 073°50'0 0.1
2018-Feb-14 02:29N 40°27' W 073°50'1 2.6
2018-Feb-14 01:59N 40°28' W 073°48'1 2.4
2018-Feb-14 01:29N 40°28' W 073°50'0 0.6
2018-Feb-14 00:58N 40°28' W 073°50'0 0.2
2018-Feb-14 00:30N 40°28' W 073°50'0 0.3
2018-Feb-14 00:00N 40°27' W 073°50'0 0.9
2018-Feb-13 23:29N 40°27' W 073°50'0 0.4
2018-Feb-13 22:55N 40°27' W 073°50'0 0.4
2018-Feb-13 22:30N 40°27' W 073°49'0 0.5
2018-Feb-13 21:57N 40°27' W 073°49'0 0.5
2018-Feb-13 21:29N 40°26' W 073°49'0 0.6
2018-Feb-13 21:00N 40°26' W 073°49'1 2.7
2018-Feb-13 20:30N 40°28' W 073°48'1 1.5
2018-Feb-13 19:59N 40°28' W 073°49'0 0.8
2018-Feb-13 19:25N 40°28' W 073°48'0 0.7
2018-Feb-13 18:58N 40°28' W 073°48'0 0.6
2018-Feb-13 18:19N 40°27' W 073°48'0 0.5
2018-Feb-13 18:00N 40°27' W 073°48'0 0.5
2018-Feb-13 17:30N 40°27' W 073°48'0 0.2
2018-Feb-13 17:00N 40°27' W 073°48'4 8.6
2018-Feb-13 16:29N 40°28' W 073°53'2 4.3
2018-Feb-13 16:00N 40°26' W 073°51'0 0.3
2018-Feb-13 15:30N 40°26' W 073°51'0 0.3
2018-Feb-13 15:00N 40°27' W 073°51'0 0.5
2018-Feb-13 14:30N 40°27' W 073°51'0 0.6
2018-Feb-13 13:54N 40°27' W 073°50'0 0.9
2018-Feb-13 13:30N 40°27' W 073°50'0 0.7
2018-Feb-13 13:00N 40°28' W 073°50'2 3.7
2018-Feb-13 12:28N 40°26' W 073°48'1 1.0
2018-Feb-13 11:51N 40°27' W 073°48'0 0.9
2018-Feb-13 11:21N 40°26' W 073°48'1 1.8
2018-Feb-13 10:58N 40°27' W 073°49'0 0.3
2018-Feb-13 10:29N 40°27' W 073°49'0 0.4
2018-Feb-13 09:59N 40°26' W 073°48'0 0.3
2018-Feb-13 09:30N 40°27' W 073°49'1 1.3
2018-Feb-13 09:00N 40°26' W 073°48'0 0.4
2018-Feb-13 08:29N 40°26' W 073°48'1 1.5
2018-Feb-13 07:59N 40°26' W 073°48'1 3.1
2018-Feb-13 07:30N 40°27' W 073°49'0 0.7
2018-Feb-13 07:00N 40°28' W 073°50'2 3.1
2018-Feb-13 06:30N 40°26' W 073°50'1 1.2
2018-Feb-13 06:00N 40°27' W 073°50'1 1.4
2018-Feb-13 05:29N 40°27' W 073°50'1 1.4
2018-Feb-13 05:00N 40°28' W 073°50'1 1.3
2018-Feb-13 04:30N 40°27' W 073°50'1 1.1
2018-Feb-13 04:00N 40°27' W 073°50'1 1.4
2018-Feb-13 03:30N 40°28' W 073°50'1 1.2
2018-Feb-13 03:00N 40°28' W 073°51'1 2.5
2018-Feb-13 02:30N 40°27' W 073°50'1 1.7
2018-Feb-13 02:00N 40°27' W 073°51'2 3.2
2018-Feb-13 01:30N 40°26' W 073°49'1 1.9
2018-Feb-13 00:59N 40°27' W 073°49'1 2.2
2018-Feb-13 00:29N 40°28' W 073°51'0 0.8
2018-Feb-12 23:58N 40°28' W 073°51'0 0.7
2018-Feb-12 23:30N 40°28' W 073°51'2 4.5
2018-Feb-12 23:00N 40°26' W 073°49'  

Dump ship's entire track history